createdAt,value
2023-05-19T00:00:20.139Z,11.31
2023-05-19T00:03:09.204Z,11.29
2023-05-19T00:05:45.630Z,11.29
2023-05-19T00:08:18.665Z,11.30
2023-05-19T00:10:47.228Z,11.30
2023-05-19T00:13:15.153Z,11.30
2023-05-19T00:15:43.016Z,11.31
2023-05-19T00:18:14.303Z,11.30
2023-05-19T00:20:43.313Z,11.28
2023-05-19T00:23:11.209Z,11.26
2023-05-19T00:25:38.748Z,11.26
2023-05-19T00:28:06.305Z,11.26
2023-05-19T00:30:34.084Z,11.27
2023-05-19T00:33:02.016Z,11.27
2023-05-19T00:35:29.824Z,11.26
2023-05-19T00:37:57.713Z,11.26
2023-05-19T00:40:26.095Z,11.26
2023-05-19T00:42:53.813Z,11.25
2023-05-19T00:45:21.520Z,11.24
2023-05-19T00:47:49.522Z,11.24
2023-05-19T00:50:18.642Z,11.24
2023-05-19T00:52:46.653Z,11.25
2023-05-19T00:55:15.247Z,11.25
2023-05-19T00:57:43.859Z,11.25
2023-05-19T01:00:12.403Z,11.23
2023-05-19T01:02:40.790Z,11.22
2023-05-19T01:05:09.311Z,11.21
2023-05-19T01:07:38.053Z,11.18
2023-05-19T01:10:07.915Z,11.16
2023-05-19T01:12:36.602Z,11.15
2023-05-19T01:15:05.415Z,11.14
2023-05-19T01:17:44.811Z,11.13
2023-05-19T01:20:25.919Z,11.12
2023-05-19T01:23:28.741Z,11.10
2023-05-19T01:26:14.350Z,11.10
2023-05-19T01:29:14.056Z,11.09
2023-05-19T01:31:44.522Z,11.06
2023-05-19T01:34:13.047Z,11.05
2023-05-19T01:36:44.986Z,11.03
2023-05-19T01:39:13.798Z,11.03
2023-05-19T01:41:42.536Z,11.03
2023-05-19T01:44:10.879Z,11.03
2023-05-19T01:46:39.017Z,11.03
2023-05-19T01:49:07.777Z,11.02
2023-05-19T01:51:35.949Z,11.01
2023-05-19T01:54:03.924Z,11.00
2023-05-19T01:56:46.653Z,11.00
2023-05-19T01:59:37.316Z,10.98
2023-05-19T02:02:26.807Z,10.97
2023-05-19T02:05:02.974Z,10.97
2023-05-19T02:07:44.768Z,10.96
2023-05-19T02:10:22.975Z,10.95
2023-05-19T02:12:58.705Z,10.95
2023-05-19T02:15:35.310Z,10.94
2023-05-19T02:18:04.442Z,10.93
2023-05-19T02:20:32.557Z,10.92
2023-05-19T02:23:00.351Z,10.92
2023-05-19T02:25:27.884Z,10.91
2023-05-19T02:27:55.750Z,10.90
2023-05-19T02:30:23.311Z,10.89
2023-05-19T02:32:50.941Z,10.89
2023-05-19T02:35:18.536Z,10.87
2023-05-19T02:37:46.266Z,10.84
2023-05-19T02:40:14.225Z,10.83
2023-05-19T02:42:41.736Z,10.83
2023-05-19T02:45:09.593Z,10.82
2023-05-19T02:47:38.344Z,10.82
2023-05-19T02:50:07.071Z,10.82
2023-05-19T02:52:34.729Z,10.81
2023-05-19T02:55:02.485Z,10.81
2023-05-19T02:57:31.682Z,10.81
2023-05-19T02:59:59.286Z,10.81
2023-05-19T03:02:26.785Z,10.81
2023-05-19T03:04:55.000Z,10.79
2023-05-19T03:07:25.214Z,10.78
2023-05-19T03:09:53.712Z,10.78
2023-05-19T03:12:21.860Z,10.78
2023-05-19T03:14:49.509Z,10.78
2023-05-19T03:17:17.025Z,10.78
2023-05-19T03:19:44.948Z,10.77
2023-05-19T03:22:12.555Z,10.77
2023-05-19T03:24:40.115Z,10.76
2023-05-19T03:27:07.628Z,10.76
2023-05-19T03:29:35.428Z,10.75
2023-05-19T03:32:03.128Z,10.76
2023-05-19T03:34:32.688Z,10.78
2023-05-19T03:37:00.438Z,10.80
2023-05-19T03:39:28.037Z,10.82
2023-05-19T03:41:56.262Z,10.85
2023-05-19T03:44:23.772Z,10.88
2023-05-19T03:46:51.328Z,10.91
2023-05-19T03:49:19.922Z,10.91
2023-05-19T03:51:47.480Z,10.93
2023-05-19T03:54:15.128Z,10.93
2023-05-19T03:56:43.507Z,10.96
2023-05-19T03:59:12.290Z,11.00
2023-05-19T04:01:40.281Z,11.03
2023-05-19T04:04:07.930Z,11.06
2023-05-19T04:06:36.330Z,11.06
2023-05-19T04:09:14.262Z,11.07
2023-05-19T04:11:43.071Z,11.09
2023-05-19T04:14:10.559Z,11.12
2023-05-19T04:16:38.415Z,11.17
2023-05-19T04:19:06.207Z,11.20
2023-05-19T04:21:33.962Z,11.22
2023-05-19T04:24:01.723Z,11.24
2023-05-19T04:26:31.216Z,11.27
2023-05-19T04:29:01.198Z,11.31
2023-05-19T04:31:29.984Z,11.36
2023-05-19T04:33:57.678Z,11.40
2023-05-19T04:36:25.807Z,11.44
2023-05-19T04:38:55.047Z,11.48
2023-05-19T04:41:22.873Z,11.50
2023-05-19T04:43:50.383Z,11.50
2023-05-19T04:46:18.201Z,11.50
2023-05-19T04:48:45.785Z,11.52
2023-05-19T04:51:14.109Z,11.56
2023-05-19T04:53:42.660Z,11.59
2023-05-19T04:56:13.814Z,11.62
2023-05-19T04:58:42.113Z,11.68
2023-05-19T05:01:09.636Z,11.73
2023-05-19T05:03:37.395Z,11.81
2023-05-19T05:06:05.186Z,11.87
2023-05-19T05:08:33.095Z,11.94
2023-05-19T05:11:01.954Z,12.02
2023-05-19T05:13:29.927Z,12.08
2023-05-19T05:15:58.636Z,12.13
2023-05-19T05:18:26.965Z,12.21
2023-05-19T05:20:54.770Z,12.31
2023-05-19T05:23:22.699Z,12.39
2023-05-19T05:25:50.505Z,12.47
2023-05-19T05:28:18.822Z,12.55
2023-05-19T05:30:46.386Z,12.65
2023-05-19T05:33:14.274Z,12.72
2023-05-19T05:35:42.451Z,12.80
2023-05-19T05:38:11.609Z,12.85
2023-05-19T05:40:39.992Z,12.93
2023-05-19T05:43:08.253Z,13.01
2023-05-19T05:45:35.884Z,13.07
2023-05-19T05:48:04.319Z,13.10
2023-05-19T05:50:32.293Z,13.12
2023-05-19T05:53:02.703Z,13.17
2023-05-19T05:55:30.929Z,13.26
2023-05-19T05:58:00.779Z,13.47
2023-05-19T06:00:29.882Z,13.63
2023-05-19T06:02:58.993Z,13.74
2023-05-19T06:05:26.727Z,13.85
2023-05-19T06:07:54.991Z,13.91
2023-05-19T06:10:23.278Z,13.95
2023-05-19T06:12:50.883Z,13.98
2023-05-19T06:15:18.493Z,14.01
2023-05-19T06:17:46.046Z,14.00
2023-05-19T06:20:16.956Z,14.01
2023-05-19T06:22:44.567Z,14.02
2023-05-19T06:25:13.199Z,14.05
2023-05-19T06:27:40.882Z,14.10
2023-05-19T06:30:09.371Z,14.15
2023-05-19T06:32:36.895Z,14.23
2023-05-19T06:35:04.943Z,14.31
2023-05-19T06:37:32.813Z,14.38
2023-05-19T06:40:00.664Z,14.47
2023-05-19T06:42:28.301Z,14.55
2023-05-19T06:44:55.943Z,14.64
2023-05-19T06:47:23.818Z,14.72
2023-05-19T06:49:55.379Z,14.76
2023-05-19T06:52:24.438Z,14.81
2023-05-19T06:54:51.879Z,14.83
2023-05-19T06:57:19.403Z,14.84
2023-05-19T06:59:49.410Z,14.88
2023-05-19T07:02:17.626Z,14.92
2023-05-19T07:04:45.759Z,14.98
2023-05-19T07:07:13.623Z,15.03
2023-05-19T07:09:41.883Z,15.01
2023-05-19T07:12:09.740Z,15.04
2023-05-19T07:14:38.832Z,15.10
2023-05-19T07:17:07.245Z,15.16
2023-05-19T07:19:35.972Z,15.24
2023-05-19T07:22:03.645Z,15.34
2023-05-19T07:24:31.491Z,15.43
2023-05-19T07:26:59.052Z,15.50
2023-05-19T07:29:26.744Z,15.55
2023-05-19T07:31:58.176Z,15.59
2023-05-19T07:34:26.313Z,15.65
2023-05-19T07:36:53.813Z,15.70
2023-05-19T07:39:22.097Z,15.75
2023-05-19T07:41:54.125Z,15.81
2023-05-19T07:44:22.238Z,15.89
2023-05-19T07:46:51.856Z,16.00
2023-05-19T07:49:19.571Z,16.06
2023-05-19T07:51:47.766Z,16.12
2023-05-19T07:54:15.758Z,16.18
2023-05-19T07:56:44.053Z,16.22
2023-05-19T07:59:11.753Z,16.29
2023-05-19T08:01:44.861Z,16.33
2023-05-19T08:04:15.884Z,16.33
2023-05-19T08:06:44.751Z,16.33
2023-05-19T08:09:12.396Z,16.30
2023-05-19T08:11:39.943Z,16.29
2023-05-19T08:14:07.472Z,16.29
2023-05-19T08:16:34.994Z,16.28
2023-05-19T08:19:04.787Z,16.29
2023-05-19T08:21:35.356Z,16.38
2023-05-19T08:24:04.226Z,16.40
2023-05-19T08:26:31.800Z,16.38
2023-05-19T08:28:59.286Z,16.36
2023-05-19T08:31:26.808Z,16.39
2023-05-19T08:33:54.374Z,16.42
2023-05-19T08:36:21.902Z,16.45
2023-05-19T08:38:49.358Z,16.52
2023-05-19T08:41:17.783Z,16.63
2023-05-19T08:43:45.513Z,16.69
2023-05-19T08:46:15.261Z,16.74
2023-05-19T08:48:45.986Z,16.87
2023-05-19T08:51:23.030Z,17.01
2023-05-19T08:53:55.196Z,17.12
2023-05-19T08:56:25.358Z,17.16
2023-05-19T08:58:53.653Z,17.19
2023-05-19T09:01:23.003Z,17.25
2023-05-19T09:03:52.195Z,17.31
2023-05-19T09:06:20.087Z,17.37
2023-05-19T09:08:48.126Z,17.37
2023-05-19T09:11:16.101Z,17.42
2023-05-19T09:13:43.903Z,17.44
2023-05-19T09:16:12.705Z,17.53
2023-05-19T09:18:43.410Z,17.56
2023-05-19T09:21:11.872Z,17.58
2023-05-19T09:23:39.742Z,17.68
2023-05-19T09:26:08.071Z,17.80
2023-05-19T09:28:36.799Z,17.88
2023-05-19T09:31:11.458Z,17.88
2023-05-19T09:33:45.579Z,17.88
2023-05-19T09:36:19.950Z,17.86
2023-05-19T09:38:48.168Z,17.89
2023-05-19T09:41:16.483Z,17.94
2023-05-19T09:43:57.513Z,17.95
2023-05-19T09:46:28.413Z,18.00
2023-05-19T09:49:00.426Z,17.98
2023-05-19T09:51:30.687Z,17.96
2023-05-19T09:53:59.519Z,17.95
2023-05-19T09:56:33.126Z,17.93
2023-05-19T09:59:03.385Z,17.93
2023-05-19T10:01:33.706Z,17.96
2023-05-19T10:04:03.871Z,17.95
2023-05-19T10:06:34.372Z,17.96
2023-05-19T10:09:03.420Z,18.03
2023-05-19T10:11:31.781Z,18.01
2023-05-19T10:14:00.144Z,17.91
2023-05-19T10:16:31.400Z,17.80
2023-05-19T10:19:01.197Z,17.70
2023-05-19T10:21:29.043Z,17.59
2023-05-19T10:23:56.606Z,17.47
2023-05-19T10:26:26.420Z,17.32
2023-05-19T10:28:55.576Z,17.22
2023-05-19T10:31:24.419Z,17.10
2023-05-19T10:34:22.133Z,16.98
2023-05-19T10:37:12.707Z,16.91
2023-05-19T10:39:43.721Z,17.07
2023-05-19T10:42:38.606Z,17.26
2023-05-19T10:45:24.005Z,17.52
2023-05-19T10:47:53.879Z,17.68
2023-05-19T10:50:22.597Z,17.80
2023-05-19T10:52:55.993Z,17.88
2023-05-19T10:55:47.647Z,17.98
2023-05-19T10:58:15.700Z,17.97
2023-05-19T11:00:43.640Z,18.05
2023-05-19T11:03:24.666Z,18.09
2023-05-19T11:05:52.228Z,18.00
2023-05-19T11:08:32.961Z,17.87
2023-05-19T11:11:17.469Z,17.68
2023-05-19T11:13:55.102Z,17.54
2023-05-19T11:16:31.883Z,17.45
2023-05-19T11:19:00.386Z,17.38
2023-05-19T11:21:52.381Z,17.34
2023-05-19T11:24:36.253Z,17.34
2023-05-19T11:27:27.172Z,17.29
2023-05-19T11:29:57.224Z,17.28
2023-05-19T11:32:39.594Z,17.39
2023-05-19T11:35:08.358Z,17.58
2023-05-19T11:37:36.617Z,17.56
2023-05-19T11:40:08.219Z,17.48
2023-05-19T11:42:38.082Z,17.35
2023-05-19T11:45:06.788Z,17.22
2023-05-19T11:47:45.941Z,17.10
2023-05-19T11:50:22.271Z,17.01
2023-05-19T11:52:52.454Z,16.92
2023-05-19T11:55:22.109Z,16.86
2023-05-19T12:00:38.982Z,16.83
2023-05-19T12:03:07.353Z,16.83
2023-05-19T12:05:47.351Z,16.85
2023-05-19T12:08:18.536Z,16.88
2023-05-19T12:10:52.226Z,16.92
2023-05-19T12:13:22.892Z,17.01
2023-05-19T12:15:53.304Z,17.11
2023-05-19T12:18:21.764Z,17.21
2023-05-19T12:20:49.720Z,17.37
2023-05-19T12:23:18.003Z,17.60
2023-05-19T12:25:46.005Z,17.79
2023-05-19T12:28:16.432Z,17.84
2023-05-19T12:30:48.091Z,17.84
2023-05-19T12:33:16.288Z,17.75
2023-05-19T12:35:45.462Z,17.59
2023-05-19T12:38:15.676Z,17.43
2023-05-19T12:40:44.476Z,17.30
2023-05-19T12:43:28.502Z,17.14
2023-05-19T12:45:56.075Z,17.00
2023-05-19T12:48:23.708Z,16.90
2023-05-19T12:50:54.358Z,16.81
2023-05-19T12:53:22.085Z,16.74
2023-05-19T12:55:52.858Z,16.70
2023-05-19T12:58:22.706Z,16.72
2023-05-19T13:00:50.909Z,16.74
2023-05-19T13:03:20.318Z,16.82
2023-05-19T13:05:50.756Z,17.00
2023-05-19T13:08:23.898Z,17.26
2023-05-19T13:10:51.966Z,17.50
2023-05-19T13:13:20.837Z,17.61
2023-05-19T13:15:49.527Z,17.70
2023-05-19T13:18:17.769Z,17.72
2023-05-19T13:20:50.211Z,17.61
2023-05-19T13:23:18.528Z,17.50
2023-05-19T13:25:46.353Z,17.35
2023-05-19T13:28:14.294Z,17.20
2023-05-19T13:30:43.935Z,17.03
2023-05-19T13:33:13.037Z,16.86
2023-05-19T13:35:42.297Z,16.71
2023-05-19T13:38:10.741Z,16.61
2023-05-19T13:40:40.353Z,16.51
2023-05-19T13:43:09.807Z,16.43
2023-05-19T13:45:38.447Z,16.34
2023-05-19T13:48:07.322Z,16.24
2023-05-19T13:50:35.471Z,16.16
2023-05-19T13:53:04.828Z,16.07
2023-05-19T13:55:33.618Z,15.94
2023-05-19T13:58:02.382Z,15.83
2023-05-19T14:00:37.026Z,15.74
2023-05-19T14:03:04.685Z,15.68
2023-05-19T14:05:33.436Z,15.61
2023-05-19T14:08:01.335Z,15.52
2023-05-19T14:10:34.679Z,15.48
2023-05-19T14:13:30.420Z,15.46
2023-05-19T14:15:52.227Z,15.45
2023-05-19T14:18:19.853Z,15.46
2023-05-19T14:20:47.399Z,15.50
2023-05-19T14:23:16.937Z,15.48
2023-05-19T14:25:44.514Z,15.46
2023-05-19T14:28:12.140Z,15.43
2023-05-19T14:30:40.488Z,15.42
2023-05-19T14:33:09.264Z,15.43
2023-05-19T14:35:37.097Z,15.41
2023-05-19T14:38:04.890Z,15.42
2023-05-19T14:40:32.909Z,15.40
2023-05-19T14:43:00.744Z,15.38
2023-05-19T14:45:28.444Z,15.37
2023-05-19T14:47:56.199Z,15.37
2023-05-19T14:50:23.895Z,15.37
2023-05-19T14:52:51.520Z,15.36
2023-05-19T14:55:19.207Z,15.31
2023-05-19T14:57:46.865Z,15.28
2023-05-19T15:00:14.729Z,15.27
2023-05-19T15:02:42.637Z,15.25
2023-05-19T15:05:11.633Z,15.23
2023-05-19T15:07:39.213Z,15.23
2023-05-19T15:10:07.739Z,15.21
2023-05-19T15:12:35.416Z,15.16
2023-05-19T15:15:03.451Z,15.15
2023-05-19T15:17:31.280Z,15.12
2023-05-19T15:19:58.892Z,15.11
2023-05-19T15:22:26.617Z,15.10
2023-05-19T15:24:54.284Z,15.10
2023-05-19T15:27:22.736Z,15.09
2023-05-19T15:29:51.400Z,15.07
2023-05-19T15:32:19.213Z,15.06
2023-05-19T15:34:46.880Z,15.04
2023-05-19T15:37:14.968Z,15.01
2023-05-19T15:39:42.429Z,15.01
2023-05-19T15:42:10.005Z,14.99
2023-05-19T15:44:38.370Z,14.96
2023-05-19T15:47:06.054Z,14.94
2023-05-19T15:49:33.534Z,14.93
2023-05-19T15:52:02.154Z,14.93
2023-05-19T15:54:29.795Z,14.94
2023-05-19T15:56:57.392Z,14.94
2023-05-19T15:59:25.006Z,14.96
2023-05-19T16:01:53.266Z,14.95
2023-05-19T16:04:21.212Z,14.95
2023-05-19T16:06:49.090Z,14.95
2023-05-19T16:09:16.761Z,14.95
2023-05-19T16:11:44.351Z,14.97
2023-05-19T16:14:11.862Z,14.97
2023-05-19T16:16:39.575Z,14.97
2023-05-19T16:19:07.285Z,14.98
2023-05-19T16:21:36.198Z,14.98
2023-05-19T16:24:04.076Z,14.98
2023-05-19T16:26:31.593Z,14.98
2023-05-19T16:28:59.156Z,14.99
2023-05-19T16:31:26.731Z,15.00
2023-05-19T16:33:54.293Z,15.03
2023-05-19T16:36:22.991Z,15.04
2023-05-19T16:38:50.533Z,15.04
2023-05-19T16:41:18.147Z,15.04
2023-05-19T16:43:45.802Z,15.04
2023-05-19T16:46:13.429Z,15.03
2023-05-19T16:48:41.018Z,15.03
2023-05-19T16:51:08.550Z,15.00
2023-05-19T16:53:36.091Z,14.98
2023-05-19T16:56:04.206Z,14.97
2023-05-19T16:58:31.956Z,14.96
2023-05-19T17:00:59.545Z,14.95
2023-05-19T17:03:27.227Z,14.95
2023-05-19T17:05:55.261Z,14.94
2023-05-19T17:08:22.806Z,14.93
2023-05-19T17:10:50.325Z,14.89
2023-05-19T17:13:17.964Z,14.84
2023-05-19T17:15:45.550Z,14.80
2023-05-19T17:18:13.192Z,14.77
2023-05-19T17:20:41.494Z,14.75
2023-05-19T17:23:09.064Z,14.74
2023-05-19T17:25:36.574Z,14.71
2023-05-19T17:28:04.267Z,14.69
2023-05-19T17:30:32.061Z,14.68
2023-05-19T17:33:00.692Z,14.67
2023-05-19T17:35:28.683Z,14.65
2023-05-19T17:37:57.942Z,14.63
2023-05-19T17:40:25.800Z,14.62
2023-05-19T17:42:53.369Z,14.58
2023-05-19T17:45:22.145Z,14.55
2023-05-19T17:47:49.924Z,14.52
2023-05-19T17:50:17.577Z,14.52
2023-05-19T17:52:45.679Z,14.50
2023-05-19T17:55:14.783Z,14.49
2023-05-19T17:57:45.642Z,14.48
2023-05-19T18:00:13.702Z,14.47
2023-05-19T18:02:41.677Z,14.46
2023-05-19T18:05:10.382Z,14.44
2023-05-19T18:07:39.582Z,14.41
2023-05-19T18:10:09.096Z,14.36
2023-05-19T18:12:36.636Z,14.34
2023-05-19T18:15:04.693Z,14.33
2023-05-19T18:17:32.469Z,14.32
2023-05-19T18:19:59.989Z,14.30
2023-05-19T18:22:27.473Z,14.26
2023-05-19T18:24:56.114Z,14.24
2023-05-19T18:27:23.659Z,14.22
2023-05-19T18:29:51.203Z,14.19
2023-05-19T18:32:18.681Z,14.17
2023-05-19T18:34:46.367Z,14.16
2023-05-19T18:37:13.879Z,14.15
2023-05-19T18:39:41.432Z,14.13
2023-05-19T18:42:09.039Z,14.12
2023-05-19T18:44:36.512Z,14.10
2023-05-19T18:47:04.173Z,14.08
2023-05-19T18:49:32.917Z,14.05
2023-05-19T18:52:00.498Z,14.01
2023-05-19T18:54:28.494Z,13.99
2023-05-19T18:56:55.999Z,13.97
2023-05-19T18:59:24.692Z,13.94
2023-05-19T19:01:55.653Z,13.93
2023-05-19T19:04:23.161Z,13.91
2023-05-19T19:06:52.294Z,13.88
2023-05-19T19:09:19.734Z,13.87
2023-05-19T19:11:47.437Z,13.85
2023-05-19T19:14:15.165Z,13.83
2023-05-19T19:16:42.728Z,13.82
2023-05-19T19:19:10.580Z,13.80
2023-05-19T19:21:40.368Z,13.81
2023-05-19T19:24:07.883Z,13.81
2023-05-19T19:26:35.426Z,13.80
2023-05-19T19:29:02.910Z,13.79
2023-05-19T19:31:30.579Z,13.79
2023-05-19T19:34:02.949Z,13.78
2023-05-19T19:36:31.785Z,13.77
2023-05-19T19:38:59.637Z,13.75
2023-05-19T19:41:29.625Z,13.73
2023-05-19T19:43:57.203Z,13.73
2023-05-19T19:46:24.813Z,13.73
2023-05-19T19:48:52.760Z,13.73
2023-05-19T19:51:20.493Z,13.72
2023-05-19T19:53:48.205Z,13.68
2023-05-19T19:56:15.786Z,13.66
2023-05-19T19:58:43.341Z,13.65
2023-05-19T20:01:11.276Z,13.63
2023-05-19T20:03:38.957Z,13.61
2023-05-19T20:06:07.464Z,13.57
2023-05-19T20:08:34.937Z,13.55
2023-05-19T20:11:02.528Z,13.54
2023-05-19T20:13:30.810Z,13.53
2023-05-19T20:16:01.297Z,13.52
2023-05-19T20:18:29.704Z,13.52
2023-05-19T20:20:57.560Z,13.50
2023-05-19T20:23:25.221Z,13.50
2023-05-19T20:26:09.919Z,13.51
2023-05-19T20:28:39.275Z,13.51
2023-05-19T20:31:06.950Z,13.51
2023-05-19T20:33:34.972Z,13.49
2023-05-19T20:36:02.632Z,13.48
2023-05-19T20:38:30.194Z,13.46
2023-05-19T20:40:57.711Z,13.46
2023-05-19T20:43:25.369Z,13.46
2023-05-19T20:45:52.978Z,13.46
2023-05-19T20:48:20.949Z,13.44
2023-05-19T20:50:48.554Z,13.44
2023-05-19T20:53:16.111Z,13.41
2023-05-19T20:55:48.094Z,13.41
2023-05-19T20:58:15.837Z,13.39
2023-05-19T21:00:44.460Z,13.38
2023-05-19T21:03:12.194Z,13.38
2023-05-19T21:05:39.883Z,13.38
2023-05-19T21:08:12.509Z,13.38
2023-05-19T21:10:40.894Z,13.36
2023-05-19T21:13:08.651Z,13.36
2023-05-19T21:15:36.157Z,13.34
2023-05-19T21:18:03.966Z,13.32
2023-05-19T21:20:31.925Z,13.30
2023-05-19T21:23:01.283Z,13.30
2023-05-19T21:25:28.738Z,13.30
2023-05-19T21:27:58.344Z,13.29
2023-05-19T21:30:25.942Z,13.30
2023-05-19T21:32:53.521Z,13.28
2023-05-19T21:35:21.186Z,13.27
2023-05-19T21:37:48.812Z,13.25
2023-05-19T21:40:16.427Z,13.24
2023-05-19T21:42:44.044Z,13.23
2023-05-19T21:45:11.524Z,13.23
2023-05-19T21:47:39.337Z,13.22
2023-05-19T21:50:07.512Z,13.22
2023-05-19T21:52:36.328Z,13.23
2023-05-19T21:55:04.189Z,13.22
2023-05-19T21:57:31.734Z,13.22
2023-05-19T21:59:59.237Z,13.20
2023-05-19T22:02:27.179Z,13.20
2023-05-19T22:04:54.773Z,13.19
2023-05-19T22:07:27.101Z,13.17
2023-05-19T22:09:54.650Z,13.16
2023-05-19T22:12:24.084Z,13.17
2023-05-19T22:14:51.592Z,13.16
2023-05-19T22:17:19.071Z,13.17
2023-05-19T22:19:46.571Z,13.16
2023-05-19T22:22:14.889Z,13.16
2023-05-19T22:24:42.966Z,13.17
2023-05-19T22:27:10.522Z,13.17
2023-05-19T22:29:40.923Z,13.19
2023-05-19T22:32:12.320Z,13.19
2023-05-19T22:34:40.472Z,13.19
2023-05-19T22:37:08.196Z,13.19
2023-05-19T22:39:36.350Z,13.19
2023-05-19T22:42:03.984Z,13.20
2023-05-19T22:44:31.730Z,13.22
2023-05-19T22:47:00.110Z,13.23
2023-05-19T22:49:29.215Z,13.24
2023-05-19T22:51:57.952Z,13.25
2023-05-19T22:54:25.690Z,13.25
2023-05-19T22:56:53.151Z,13.25
2023-05-19T22:59:21.511Z,13.26
2023-05-19T23:01:48.940Z,13.26
2023-05-19T23:04:16.566Z,13.26
2023-05-19T23:06:44.391Z,13.25
2023-05-19T23:09:11.942Z,13.25
2023-05-19T23:11:39.428Z,13.24
2023-05-19T23:14:06.908Z,13.25
2023-05-19T23:16:34.490Z,13.24
2023-05-19T23:19:02.408Z,13.22
2023-05-19T23:21:32.401Z,13.23
2023-05-19T23:24:00.040Z,13.24
2023-05-19T23:26:27.564Z,13.25
2023-05-19T23:28:55.092Z,13.26
2023-05-19T23:31:22.757Z,13.26
2023-05-19T23:33:50.561Z,13.26
2023-05-19T23:36:19.193Z,13.24
2023-05-19T23:38:46.696Z,13.24
2023-05-19T23:41:14.705Z,13.23
2023-05-19T23:43:42.228Z,13.24
2023-05-19T23:46:10.511Z,13.26
2023-05-19T23:48:38.238Z,13.26
2023-05-19T23:51:05.844Z,13.26
2023-05-19T23:53:33.533Z,13.25
2023-05-19T23:56:02.430Z,13.24
2023-05-19T23:58:29.928Z,13.23
